MV Inez Andreas — WDB7752 — position and weather

sailwx.info

Track history (hours):
 
Tides and Currents Weather Stations Pressure Air Temp Water Temp Dewpoint Dewpoint Depression Visibility Wind Speed Wind Dir Waves Ship Positions

MV Inez Andreas

Owner: American River Transportation Co., Saint Louis, MO. More information available from US FCC via Universal Licensing System and Coast Guard Vessel Documentation Center.

Last reported at 2018-Jul-17 08:11 UTC. Time now 2018-Jul-19 19:24 UTC.
Position N 32°50' W 091°08'.

Length 66 m; draft 3.2 m.

Type: Towing. MMSI: 366947510.

Date/timePositionNaut miles runAvg speedWind from/ knotsBaromVisibWave heightAir tempDewpointWater temp
2018-Jul-17 08:11N 32°50' W 091°08'1 4.3
2018-Jul-17 08:00N 32°49' W 091°09'2 4.0
2018-Jul-17 07:30N 32°47' W 091°09'2 4.3
2018-Jul-17 07:00N 32°45' W 091°09'2 3.5
2018-Jul-17 06:30N 32°44' W 091°08'2 4.3
2018-Jul-17 06:00N 32°44' W 091°05'2 4.1
2018-Jul-17 05:30N 32°43' W 091°03'5 4.0
2018-Jul-17 04:11N 32°40' W 091°08'2 3.3
2018-Jul-17 03:43N 32°38' W 091°09'1 4.5
2018-Jul-17 03:30N 32°37' W 091°09'2 4.5
2018-Jul-17 03:00N 32°35' W 091°08'2 4.6
2018-Jul-17 02:31N 32°34' W 091°06'4 4.5
2018-Jul-17 01:33N 32°30' W 091°07'0 4.9
2018-Jul-17 01:30N 32°29' W 091°07'2 4.5
2018-Jul-17 01:00N 32°27' W 091°06'2 4.5
2018-Jul-17 00:30N 32°26' W 091°03'4 4.0
2018-Jul-16 23:30N 32°24' W 090°59'2 4.1
2018-Jul-16 23:01N 32°22' W 091°00'2 3.7
2018-Jul-16 22:30N 32°21' W 090°58'2 4.5
2018-Jul-16 22:00N 32°21' W 090°56'2 4.1
2018-Jul-16 21:30N 32°19' W 090°54'2 3.8
2018-Jul-16 21:00N 32°18' W 090°56'2 4.5
2018-Jul-16 20:31N 32°16' W 090°58'2 4.3
2018-Jul-16 20:00N 32°14' W 090°59'2 4.4
2018-Jul-16 19:30N 32°12' W 090°59'2 3.3
2018-Jul-16 19:01N 32°11' W 090°60'2 4.2
2018-Jul-16 18:31N 32°09' W 091°00'2 3.9
2018-Jul-16 18:00N 32°07' W 091°02'2 4.3
2018-Jul-16 17:27N 32°08' W 091°05'2 4.1
2018-Jul-16 17:01N 32°07' W 091°07'5 4.4
2018-Jul-16 15:55N 32°03' W 091°03'3 5.1
2018-Jul-16 15:22N 32°01' W 091°05'14 4.1
2018-Jul-16 11:58N 31°51' W 091°17'2 4.6
2018-Jul-16 11:28N 31°51' W 091°20'2 3.9
2018-Jul-16 11:00N 31°50' W 091°21'  
2018-Jul-12 14:07N 31°29' W 091°31'14 1.9
2018-Jul-12 06:55N 31°41' W 091°24'4 7.6
2018-Jul-12 06:27N 31°45' W 091°22'3 6.3
2018-Jul-12 06:00N 31°47' W 091°22'4 8.0
2018-Jul-12 05:30N 31°51' W 091°20'6 7.0
2018-Jul-12 04:43N 31°52' W 091°14'2 7.8
2018-Jul-12 04:28N 31°54' W 091°12'4 7.8
2018-Jul-12 04:00N 31°57' W 091°11'4 6.6
2018-Jul-12 03:25N 31°59' W 091°07'3 7.3
2018-Jul-12 03:00N 32°01' W 091°04'4 7.1
2018-Jul-12 02:30N 32°04' W 091°04'3 6.8
2018-Jul-12 02:00N 32°07' W 091°06'2 4.2
2018-Jul-12 01:30N 32°08' W 091°04'3 6.6
2018-Jul-12 01:00N 32°08' W 091°00'4 7.8
2018-Jul-12 00:30N 32°12' W 090°59'4 7.5
2018-Jul-12 00:00N 32°16' W 090°58'4 7.7
2018-Jul-11 23:30N 32°18' W 090°55'2 3.8
2018-Jul-11 23:00N 32°20' W 090°54'4 7.3
2018-Jul-11 22:30N 32°21' W 090°59'3 6.2
2018-Jul-11 22:00N 32°24' W 090°59'3 6.7
2018-Jul-11 21:30N 32°26' W 091°02'4 7.3
2018-Jul-11 21:00N 32°28' W 091°06'4 7.1
2018-Jul-11 20:30N 32°31' W 091°06'3 7.0
2018-Jul-11 20:00N 32°35' W 091°07'5 6.9
2018-Jul-11 19:19N 32°39' W 091°09'  
Track history (hours):
 
Tides and Currents Weather Stations Pressure Air Temp Water Temp Dewpoint Dewpoint Depression Visibility Wind Speed Wind Dir Waves Ship Positions

MV Inez Andreas

Owner: American River Transportation Co., Saint Louis, MO. More information available from US FCC via Universal Licensing System and Coast Guard Vessel Documentation Center.

Last reported at 2018-Jul-17 08:11 UTC. Time now 2018-Jul-19 19:24 UTC.
Position N 32°50' W 091°08'.

Length 66 m; draft 3.2 m.

Type: Towing. MMSI: 366947510.

Date/timePositionNaut miles runAvg speedWind from/ knotsBaromVisibWave heightAir tempDewpointWater temp
2018-Jul-17 08:11N 32°50' W 091°08'1 4.3
2018-Jul-17 08:00N 32°49' W 091°09'2 4.0
2018-Jul-17 07:30N 32°47' W 091°09'2 4.3
2018-Jul-17 07:00N 32°45' W 091°09'2 3.5
2018-Jul-17 06:30N 32°44' W 091°08'2 4.3
2018-Jul-17 06:00N 32°44' W 091°05'2 4.1
2018-Jul-17 05:30N 32°43' W 091°03'5 4.0
2018-Jul-17 04:11N 32°40' W 091°08'2 3.3
2018-Jul-17 03:43N 32°38' W 091°09'1 4.5
2018-Jul-17 03:30N 32°37' W 091°09'2 4.5
2018-Jul-17 03:00N 32°35' W 091°08'2 4.6
2018-Jul-17 02:31N 32°34' W 091°06'4 4.5
2018-Jul-17 01:33N 32°30' W 091°07'0 4.9
2018-Jul-17 01:30N 32°29' W 091°07'2 4.5
2018-Jul-17 01:00N 32°27' W 091°06'2 4.5
2018-Jul-17 00:30N 32°26' W 091°03'4 4.0
2018-Jul-16 23:30N 32°24' W 090°59'2 4.1
2018-Jul-16 23:01N 32°22' W 091°00'2 3.7
2018-Jul-16 22:30N 32°21' W 090°58'2 4.5
2018-Jul-16 22:00N 32°21' W 090°56'2 4.1
2018-Jul-16 21:30N 32°19' W 090°54'2 3.8
2018-Jul-16 21:00N 32°18' W 090°56'2 4.5
2018-Jul-16 20:31N 32°16' W 090°58'2 4.3
2018-Jul-16 20:00N 32°14' W 090°59'2 4.4
2018-Jul-16 19:30N 32°12' W 090°59'2 3.3
2018-Jul-16 19:01N 32°11' W 090°60'2 4.2
2018-Jul-16 18:31N 32°09' W 091°00'2 3.9
2018-Jul-16 18:00N 32°07' W 091°02'2 4.3
2018-Jul-16 17:27N 32°08' W 091°05'2 4.1
2018-Jul-16 17:01N 32°07' W 091°07'5 4.4
2018-Jul-16 15:55N 32°03' W 091°03'3 5.1
2018-Jul-16 15:22N 32°01' W 091°05'14 4.1
2018-Jul-16 11:58N 31°51' W 091°17'2 4.6
2018-Jul-16 11:28N 31°51' W 091°20'2 3.9
2018-Jul-16 11:00N 31°50' W 091°21'  
2018-Jul-12 14:07N 31°29' W 091°31'14 1.9
2018-Jul-12 06:55N 31°41' W 091°24'4 7.6
2018-Jul-12 06:27N 31°45' W 091°22'3 6.3
2018-Jul-12 06:00N 31°47' W 091°22'4 8.0
2018-Jul-12 05:30N 31°51' W 091°20'6 7.0
2018-Jul-12 04:43N 31°52' W 091°14'2 7.8
2018-Jul-12 04:28N 31°54' W 091°12'4 7.8
2018-Jul-12 04:00N 31°57' W 091°11'4 6.6
2018-Jul-12 03:25N 31°59' W 091°07'3 7.3
2018-Jul-12 03:00N 32°01' W 091°04'4 7.1
2018-Jul-12 02:30N 32°04' W 091°04'3 6.8
2018-Jul-12 02:00N 32°07' W 091°06'2 4.2
2018-Jul-12 01:30N 32°08' W 091°04'3 6.6
2018-Jul-12 01:00N 32°08' W 091°00'4 7.8
2018-Jul-12 00:30N 32°12' W 090°59'4 7.5
2018-Jul-12 00:00N 32°16' W 090°58'4 7.7
2018-Jul-11 23:30N 32°18' W 090°55'2 3.8
2018-Jul-11 23:00N 32°20' W 090°54'4 7.3
2018-Jul-11 22:30N 32°21' W 090°59'3 6.2
2018-Jul-11 22:00N 32°24' W 090°59'3 6.7
2018-Jul-11 21:30N 32°26' W 091°02'4 7.3
2018-Jul-11 21:00N 32°28' W 091°06'4 7.1
2018-Jul-11 20:30N 32°31' W 091°06'3 7.0
2018-Jul-11 20:00N 32°35' W 091°07'5 6.9
2018-Jul-11 19:19N 32°39' W 091°09'  

Dump ship's entire track history